createdAt,value
2023-03-26T00:01:16.109Z,6.89
2023-03-26T00:03:47.270Z,6.92
2023-03-26T00:06:16.811Z,6.94
2023-03-26T00:08:45.931Z,6.97
2023-03-26T00:11:14.843Z,6.89
2023-03-26T00:13:44.081Z,6.82
2023-03-26T00:16:19.809Z,6.82
2023-03-26T00:18:47.485Z,6.78
2023-03-26T00:21:15.870Z,6.79
2023-03-26T00:23:43.301Z,6.70
2023-03-26T00:26:11.366Z,6.71
2023-03-26T00:28:40.694Z,6.74
2023-03-26T00:31:10.895Z,6.75
2023-03-26T00:33:40.720Z,6.72
2023-03-26T00:36:14.886Z,6.68
2023-03-26T00:38:43.201Z,6.66
2023-03-26T00:41:23.167Z,6.61
2023-03-26T00:43:53.586Z,6.56
2023-03-26T00:46:20.452Z,6.61
2023-03-26T00:48:47.636Z,6.66
2023-03-26T00:51:16.493Z,6.68
2023-03-26T00:53:45.465Z,6.58
2023-03-26T00:56:12.949Z,6.55
2023-03-26T00:58:41.214Z,6.49
2023-03-26T01:01:18.744Z,6.53
2023-03-26T01:04:00.823Z,6.48
2023-03-26T01:06:36.207Z,6.50
2023-03-26T01:09:19.148Z,6.47
2023-03-26T01:11:46.471Z,6.57
2023-03-26T01:14:18.493Z,6.66
2023-03-26T01:16:52.574Z,6.78
2023-03-26T01:19:30.185Z,6.81
2023-03-26T01:21:58.508Z,6.85
2023-03-26T01:24:25.400Z,6.90
2023-03-26T01:27:01.122Z,6.89
2023-03-26T01:29:39.611Z,6.85
2023-03-26T01:32:12.355Z,6.84
2023-03-26T01:35:08.056Z,6.74
2023-03-26T01:37:43.756Z,6.65
2023-03-26T01:40:38.827Z,6.59
2023-03-26T01:43:16.484Z,6.54
2023-03-26T01:45:46.630Z,6.44
2023-03-26T01:48:14.130Z,6.35
2023-03-26T01:50:41.451Z,6.39
2023-03-26T01:53:11.926Z,6.29
2023-03-26T01:56:02.265Z,6.32
2023-03-26T01:58:38.300Z,6.27
2023-03-26T02:01:24.785Z,6.27
2023-03-26T02:04:15.873Z,6.27
2023-03-26T02:06:53.003Z,6.33
2023-03-26T02:09:25.076Z,6.38
2023-03-26T02:11:52.593Z,6.39
2023-03-26T02:14:19.429Z,6.33
2023-03-26T02:16:47.216Z,6.24
2023-03-26T02:19:22.120Z,6.22
2023-03-26T02:21:52.234Z,6.19
2023-03-26T02:24:20.195Z,6.10
2023-03-26T02:26:47.028Z,6.15
2023-03-26T02:29:14.694Z,6.18
2023-03-26T02:31:41.564Z,6.13
2023-03-26T02:34:08.337Z,6.11
2023-03-26T02:36:36.349Z,6.14
2023-03-26T02:39:03.653Z,6.07
2023-03-26T02:41:30.615Z,6.03
2023-03-26T02:43:57.376Z,5.93
2023-03-26T02:46:24.097Z,5.87
2023-03-26T02:48:51.401Z,5.95
2023-03-26T02:51:18.499Z,5.90
2023-03-26T02:53:46.204Z,5.91
2023-03-26T02:56:13.305Z,5.92
2023-03-26T02:58:40.056Z,5.96
2023-03-26T03:01:06.907Z,5.96
2023-03-26T03:03:34.738Z,5.92
2023-03-26T03:06:01.470Z,5.92
2023-03-26T03:08:28.641Z,5.89
2023-03-26T03:11:07.356Z,5.92
2023-03-26T03:13:34.265Z,5.96
2023-03-26T03:16:00.988Z,5.97
2023-03-26T03:18:28.012Z,5.95
2023-03-26T03:20:54.788Z,5.96
2023-03-26T03:23:21.570Z,6.05
2023-03-26T03:25:51.027Z,6.07
2023-03-26T03:28:18.490Z,6.14
2023-03-26T03:30:45.982Z,6.17
2023-03-26T03:33:13.364Z,6.15
2023-03-26T03:35:41.778Z,6.11
2023-03-26T03:38:08.530Z,6.14
2023-03-26T03:40:35.452Z,6.09
2023-03-26T03:43:02.195Z,6.17
2023-03-26T03:45:29.416Z,6.10
2023-03-26T03:47:56.465Z,6.10
2023-03-26T03:50:23.317Z,6.05
2023-03-26T03:52:50.838Z,6.05
2023-03-26T03:55:17.575Z,6.05
2023-03-26T03:57:44.791Z,6.07
2023-03-26T04:00:12.267Z,6.04
2023-03-26T04:02:43.280Z,6.07
2023-03-26T04:05:11.808Z,6.09
2023-03-26T04:07:39.365Z,6.10
2023-03-26T04:10:07.012Z,6.17
2023-03-26T04:12:33.781Z,6.12
2023-03-26T04:15:00.702Z,6.18
2023-03-26T04:17:27.649Z,6.15
2023-03-26T04:19:55.210Z,6.20
2023-03-26T04:22:22.509Z,6.29
2023-03-26T04:24:49.944Z,6.23
2023-03-26T04:27:20.455Z,6.27
2023-03-26T04:29:50.484Z,6.20
2023-03-26T04:32:34.550Z,6.20
2023-03-26T04:35:05.424Z,6.24
2023-03-26T04:37:39.784Z,6.18
2023-03-26T04:40:18.548Z,6.18
2023-03-26T04:42:48.265Z,6.10
2023-03-26T04:45:17.891Z,6.15
2023-03-26T04:47:46.731Z,6.08
2023-03-26T04:50:13.649Z,6.13
2023-03-26T04:52:42.519Z,6.12
2023-03-26T04:55:43.585Z,6.15
2023-03-26T04:58:10.386Z,6.20
2023-03-26T05:00:37.191Z,6.21
2023-03-26T05:03:04.048Z,6.24
2023-03-26T05:05:30.985Z,6.20
2023-03-26T05:07:57.947Z,6.22
2023-03-26T05:10:24.727Z,6.19
2023-03-26T05:12:51.545Z,6.25
2023-03-26T05:15:18.552Z,6.19
2023-03-26T05:17:45.330Z,6.16
2023-03-26T05:20:24.698Z,6.16
2023-03-26T05:22:51.618Z,6.21
2023-03-26T05:25:19.360Z,6.25
2023-03-26T05:27:46.965Z,6.26
2023-03-26T05:30:16.969Z,6.31
2023-03-26T05:32:43.879Z,6.32
2023-03-26T05:35:11.912Z,6.43
2023-03-26T05:37:39.127Z,6.36
2023-03-26T05:40:17.410Z,6.35
2023-03-26T05:42:44.984Z,6.35
2023-03-26T05:45:15.121Z,6.36
2023-03-26T05:47:41.917Z,6.35
2023-03-26T05:50:09.537Z,6.38
2023-03-26T05:52:36.222Z,6.44
2023-03-26T05:55:03.569Z,6.52
2023-03-26T05:57:31.615Z,6.56
2023-03-26T05:59:58.410Z,6.62
2023-03-26T06:02:25.263Z,6.64
2023-03-26T06:04:52.801Z,6.70
2023-03-26T06:07:19.963Z,6.76
2023-03-26T06:09:47.093Z,6.82
2023-03-26T06:12:14.979Z,6.80
2023-03-26T06:14:45.944Z,6.79
2023-03-26T06:17:13.489Z,6.81
2023-03-26T06:19:40.124Z,6.84
2023-03-26T06:22:06.859Z,6.82
2023-03-26T06:24:34.565Z,6.86
2023-03-26T06:27:01.315Z,6.82
2023-03-26T06:29:28.186Z,6.88
2023-03-26T06:31:55.162Z,6.90
2023-03-26T06:34:21.892Z,6.94
2023-03-26T06:36:49.021Z,6.93
2023-03-26T06:39:17.985Z,6.93
2023-03-26T06:41:44.710Z,6.92
2023-03-26T06:44:11.562Z,6.92
2023-03-26T06:46:38.425Z,6.99
2023-03-26T06:49:05.658Z,7.06
2023-03-26T06:51:32.454Z,6.98
2023-03-26T06:53:59.200Z,7.04
2023-03-26T06:56:25.988Z,7.11
2023-03-26T06:58:52.743Z,7.14
2023-03-26T07:01:19.542Z,7.15
2023-03-26T07:03:46.346Z,7.22
2023-03-26T07:06:13.209Z,7.26
2023-03-26T07:08:40.033Z,7.21
2023-03-26T07:11:07.054Z,7.27
2023-03-26T07:13:33.770Z,7.32
2023-03-26T07:16:00.745Z,7.49
2023-03-26T07:18:27.577Z,7.43
2023-03-26T07:20:54.923Z,7.38
2023-03-26T07:23:22.043Z,7.40
2023-03-26T07:25:49.856Z,7.48
2023-03-26T07:28:36.778Z,7.76
2023-03-26T07:31:17.360Z,8.00
2023-03-26T07:33:54.085Z,8.09
2023-03-26T07:36:33.303Z,7.97
2023-03-26T07:39:22.355Z,8.06
2023-03-26T07:42:09.248Z,8.28
2023-03-26T07:44:40.698Z,8.65
2023-03-26T07:47:26.193Z,8.70
2023-03-26T07:49:55.618Z,8.57
2023-03-26T07:52:26.722Z,9.08
2023-03-26T07:54:53.964Z,8.89
2023-03-26T07:57:39.157Z,9.18
2023-03-26T08:00:22.550Z,8.90
2023-03-26T08:03:01.797Z,8.69
2023-03-26T08:05:34.858Z,8.40
2023-03-26T08:08:10.754Z,8.18
2023-03-26T08:11:05.220Z,8.13
2023-03-26T08:13:39.342Z,8.05
2023-03-26T08:16:24.438Z,8.08
2023-03-26T08:18:55.304Z,7.90
2023-03-26T08:21:22.092Z,7.89
2023-03-26T08:24:02.182Z,7.87
2023-03-26T08:26:38.789Z,7.78
2023-03-26T08:29:18.939Z,7.73
2023-03-26T08:31:48.961Z,7.65
2023-03-26T08:34:15.993Z,7.65
2023-03-26T08:36:43.120Z,7.73
2023-03-26T08:39:10.030Z,7.82
2023-03-26T08:41:55.624Z,7.79
2023-03-26T08:45:01.270Z,7.87
2023-03-26T08:47:57.296Z,7.91
2023-03-26T08:50:48.875Z,8.07
2023-03-26T08:53:36.817Z,8.10
2023-03-26T08:56:24.392Z,8.14
2023-03-26T08:59:36.400Z,8.28
2023-03-26T09:02:36.590Z,8.27
2023-03-26T09:05:29.090Z,8.30
2023-03-26T09:08:33.421Z,8.38
2023-03-26T09:11:15.261Z,8.47
2023-03-26T09:14:06.483Z,8.53
2023-03-26T09:17:01.115Z,8.67
2023-03-26T09:20:05.430Z,8.60
2023-03-26T09:22:48.273Z,8.59
2023-03-26T09:25:48.586Z,8.63
2023-03-26T09:28:33.691Z,8.50
2023-03-26T09:31:28.479Z,8.43
2023-03-26T09:34:26.504Z,8.36
2023-03-26T09:37:15.957Z,8.52
2023-03-26T09:40:10.870Z,8.68
2023-03-26T09:42:47.657Z,8.89
2023-03-26T09:46:11.747Z,9.16
2023-03-26T09:49:00.058Z,9.19
2023-03-26T09:51:57.589Z,9.30
2023-03-26T09:54:29.860Z,9.34
2023-03-26T09:56:58.700Z,9.40
2023-03-26T09:59:42.623Z,9.44
2023-03-26T10:02:46.107Z,9.48
2023-03-26T10:05:20.706Z,9.65
2023-03-26T10:08:25.166Z,9.60
2023-03-26T10:11:13.839Z,9.80
2023-03-26T10:14:04.857Z,9.71
2023-03-26T10:16:37.056Z,9.64
2023-03-26T10:19:09.596Z,9.71
2023-03-26T10:22:17.913Z,9.64
2023-03-26T10:25:32.887Z,9.84
2023-03-26T10:28:21.135Z,10.04
2023-03-26T10:31:25.613Z,10.05
2023-03-26T10:34:06.189Z,10.04
2023-03-26T10:36:41.653Z,9.92
2023-03-26T10:39:39.310Z,10.06
2023-03-26T10:42:34.272Z,10.03
2023-03-26T10:45:31.537Z,9.66
2023-03-26T10:48:24.721Z,9.48
2023-03-26T10:51:13.094Z,9.14
2023-03-26T10:54:09.118Z,9.19
2023-03-26T10:56:47.890Z,9.18
2023-03-26T10:59:17.219Z,9.19
2023-03-26T11:02:21.147Z,9.31
2023-03-26T11:05:04.268Z,9.41
2023-03-26T11:07:43.206Z,9.45
2023-03-26T11:10:21.695Z,9.62
2023-03-26T11:13:19.014Z,9.57
2023-03-26T11:15:57.777Z,9.47
2023-03-26T11:18:32.707Z,9.40
2023-03-26T11:21:24.283Z,9.45
2023-03-26T11:24:06.501Z,9.42
2023-03-26T11:26:49.260Z,9.34
2023-03-26T11:29:31.576Z,9.32
2023-03-26T11:32:11.147Z,9.30
2023-03-26T11:34:47.216Z,9.35
2023-03-26T11:37:34.476Z,9.39
2023-03-26T11:40:06.620Z,9.43
2023-03-26T11:42:33.495Z,9.50
2023-03-26T11:45:05.338Z,9.69
2023-03-26T11:47:48.844Z,9.72
2023-03-26T11:50:30.094Z,9.82
2023-03-26T11:53:10.780Z,9.97
2023-03-26T11:55:42.101Z,10.19
2023-03-26T11:58:26.296Z,10.46
2023-03-26T12:00:54.969Z,10.52
2023-03-26T12:03:21.854Z,10.76
2023-03-26T12:05:58.181Z,10.72
2023-03-26T12:08:34.012Z,10.64
2023-03-26T12:11:06.641Z,10.73
2023-03-26T12:13:42.089Z,10.77
2023-03-26T12:16:16.073Z,10.76
2023-03-26T12:18:45.521Z,10.95
2023-03-26T12:21:18.342Z,11.44
2023-03-26T12:24:01.199Z,11.49
2023-03-26T12:26:37.497Z,11.54
2023-03-26T12:29:19.294Z,11.44
2023-03-26T12:31:54.526Z,11.48
2023-03-26T12:34:23.830Z,11.38
2023-03-26T12:36:56.637Z,11.14
2023-03-26T12:40:10.665Z,11.21
2023-03-26T12:44:51.502Z,11.17
2023-03-26T12:45:32.007Z,10.86
2023-03-26T12:48:04.045Z,11.08
2023-03-26T12:50:55.422Z,11.01
2023-03-26T12:54:04.562Z,11.19
2023-03-26T12:56:47.934Z,10.97
2023-03-26T12:59:23.998Z,11.27
2023-03-26T13:01:56.412Z,11.30
2023-03-26T13:04:34.408Z,10.97
2023-03-26T13:07:11.121Z,10.94
2023-03-26T13:10:11.996Z,11.05
2023-03-26T13:13:01.581Z,11.02
2023-03-26T13:15:52.632Z,11.01
2023-03-26T13:18:37.437Z,11.08
2023-03-26T13:21:12.812Z,11.23
2023-03-26T13:23:56.586Z,11.22
2023-03-26T13:26:57.648Z,11.26
2023-03-26T13:29:42.057Z,11.27
2023-03-26T13:32:21.016Z,11.28
2023-03-26T13:34:56.920Z,11.38
2023-03-26T13:37:35.178Z,11.36
2023-03-26T13:40:28.040Z,11.21
2023-03-26T13:43:13.508Z,11.28
2023-03-26T13:45:55.127Z,11.22
2023-03-26T13:48:27.287Z,11.17
2023-03-26T13:50:58.403Z,11.22
2023-03-26T13:53:32.605Z,11.13
2023-03-26T13:56:00.540Z,11.40
2023-03-26T13:58:34.786Z,11.11
2023-03-26T14:01:22.007Z,11.36
2023-03-26T14:04:16.177Z,11.59
2023-03-26T14:07:09.565Z,11.59
2023-03-26T14:09:46.652Z,11.25
2023-03-26T14:12:30.362Z,11.24
2023-03-26T14:15:04.372Z,11.30
2023-03-26T14:17:46.673Z,11.24
2023-03-26T14:20:35.101Z,11.17
2023-03-26T14:23:07.640Z,11.04
2023-03-26T14:25:43.535Z,11.17
2023-03-26T14:28:44.276Z,11.37
2023-03-26T14:31:44.833Z,11.41
2023-03-26T14:34:38.614Z,11.37
2023-03-26T14:37:39.369Z,11.33
2023-03-26T14:40:25.367Z,11.18
2023-03-26T14:43:10.314Z,11.19
2023-03-26T14:45:42.956Z,11.38
2023-03-26T14:48:30.849Z,11.36
2023-03-26T14:51:45.580Z,11.45
2023-03-26T14:54:17.362Z,11.70
2023-03-26T14:57:13.372Z,11.80
2023-03-26T14:59:51.488Z,11.74
2023-03-26T15:02:55.037Z,11.74
2023-03-26T15:05:43.070Z,11.72
2023-03-26T15:08:34.574Z,11.53
2023-03-26T15:11:21.159Z,11.59
2023-03-26T15:13:48.040Z,11.55
2023-03-26T15:16:51.555Z,11.25
2023-03-26T15:19:33.479Z,11.14
2023-03-26T15:22:20.624Z,11.08
2023-03-26T15:25:11.963Z,11.12
2023-03-26T15:28:13.620Z,11.16
2023-03-26T15:31:10.050Z,11.22
2023-03-26T15:33:54.989Z,11.10
2023-03-26T15:36:24.889Z,11.05
2023-03-26T15:39:11.827Z,11.05
2023-03-26T15:41:47.535Z,10.93
2023-03-26T15:44:54.129Z,10.99
2023-03-26T15:47:40.343Z,11.03
2023-03-26T15:50:27.236Z,11.02
2023-03-26T15:53:23.864Z,10.98
2023-03-26T15:56:09.097Z,11.09
2023-03-26T15:58:45.397Z,10.93
2023-03-26T16:01:27.258Z,11.12
2023-03-26T16:04:18.690Z,11.13
2023-03-26T16:06:48.344Z,10.83
2023-03-26T16:09:21.108Z,10.95
2023-03-26T16:12:12.594Z,10.88
2023-03-26T16:14:47.051Z,10.75
2023-03-26T16:17:20.799Z,10.74
2023-03-26T16:19:50.603Z,10.65
2023-03-26T16:22:43.132Z,10.46
2023-03-26T16:25:27.669Z,10.47
2023-03-26T16:28:10.917Z,10.42
2023-03-26T16:30:39.118Z,10.34
2023-03-26T16:33:36.122Z,10.49
2023-03-26T16:36:14.312Z,10.46
2023-03-26T16:39:07.553Z,10.24
2023-03-26T16:41:56.604Z,10.24
2023-03-26T16:44:39.152Z,10.21
2023-03-26T16:47:24.627Z,10.06
2023-03-26T16:50:09.571Z,10.15
2023-03-26T16:52:42.901Z,10.13
2023-03-26T16:55:27.002Z,10.13
2023-03-26T16:57:54.013Z,9.90
2023-03-26T17:00:29.995Z,9.86
2023-03-26T17:03:01.693Z,9.69
2023-03-26T17:05:56.753Z,9.63
2023-03-26T17:08:42.785Z,9.65
2023-03-26T17:11:27.689Z,9.73
2023-03-26T17:14:03.801Z,9.66
2023-03-26T17:16:46.079Z,9.56
2023-03-26T17:19:24.361Z,9.57
2023-03-26T17:22:21.649Z,9.56
2023-03-26T17:24:58.122Z,9.51
2023-03-26T17:27:36.602Z,9.35
2023-03-26T17:30:41.239Z,9.22
2023-03-26T17:33:27.028Z,9.19
2023-03-26T17:36:12.207Z,9.26
2023-03-26T17:38:45.211Z,9.30
2023-03-26T17:41:15.855Z,9.10
2023-03-26T17:43:52.449Z,9.17
2023-03-26T17:46:22.354Z,9.15
2023-03-26T17:49:17.191Z,9.16
2023-03-26T17:51:56.683Z,9.25
2023-03-26T17:54:27.975Z,9.17
2023-03-26T17:56:59.934Z,9.18
2023-03-26T17:59:28.592Z,9.11
2023-03-26T18:02:01.299Z,9.04
2023-03-26T18:04:35.235Z,9.11
2023-03-26T18:07:20.892Z,9.18
2023-03-26T18:09:56.824Z,9.07
2023-03-26T18:12:41.634Z,9.06
2023-03-26T18:15:38.073Z,9.06
2023-03-26T18:18:10.453Z,8.95
2023-03-26T18:20:38.113Z,9.03
2023-03-26T18:23:22.289Z,8.92
2023-03-26T18:26:14.240Z,8.85
2023-03-26T18:28:44.230Z,8.97
2023-03-26T18:31:18.889Z,9.07
2023-03-26T18:33:49.947Z,8.98
2023-03-26T18:36:19.858Z,8.89
2023-03-26T18:38:49.061Z,8.93
2023-03-26T18:41:27.613Z,8.92
2023-03-26T18:43:55.521Z,8.81
2023-03-26T18:46:24.306Z,8.84
2023-03-26T18:48:52.386Z,8.89
2023-03-26T18:51:23.377Z,8.71
2023-03-26T18:53:56.934Z,8.78
2023-03-26T18:56:39.870Z,8.78
2023-03-26T18:59:20.696Z,8.71
2023-03-26T19:01:48.985Z,8.60
2023-03-26T19:04:17.240Z,8.69
2023-03-26T19:06:45.018Z,8.66
2023-03-26T19:09:30.196Z,8.53
2023-03-26T19:12:05.584Z,8.68
2023-03-26T19:14:37.050Z,8.65
2023-03-26T19:17:06.023Z,8.63
2023-03-26T19:19:37.026Z,8.58
2023-03-26T19:22:08.858Z,8.51
2023-03-26T19:24:35.942Z,8.57
2023-03-26T19:27:03.719Z,8.51
2023-03-26T19:29:34.534Z,8.32
2023-03-26T19:32:06.491Z,8.42
2023-03-26T19:34:40.135Z,8.40
2023-03-26T19:37:25.434Z,8.21
2023-03-26T19:39:54.626Z,8.20
2023-03-26T19:42:44.178Z,8.11
2023-03-26T19:45:23.367Z,8.11
2023-03-26T19:48:03.660Z,8.13
2023-03-26T19:50:43.043Z,8.11
2023-03-26T19:53:19.647Z,8.03
2023-03-26T19:56:13.393Z,8.02
2023-03-26T19:58:41.791Z,7.96
2023-03-26T20:01:18.984Z,7.92
2023-03-26T20:03:48.645Z,7.79
2023-03-26T20:06:18.883Z,7.80
2023-03-26T20:08:46.858Z,7.77
2023-03-26T20:11:33.561Z,7.76
2023-03-26T20:14:01.330Z,7.65
2023-03-26T20:16:33.755Z,7.64
2023-03-26T20:19:04.762Z,7.59
2023-03-26T20:21:41.358Z,7.47
2023-03-26T20:24:13.240Z,7.46
2023-03-26T20:26:40.108Z,7.40
2023-03-26T20:29:06.882Z,7.35
2023-03-26T20:31:33.948Z,7.26
2023-03-26T20:34:00.839Z,7.23
2023-03-26T20:36:33.916Z,7.13
2023-03-26T20:39:06.177Z,7.02
2023-03-26T20:41:34.563Z,6.93
2023-03-26T20:44:05.092Z,6.82
2023-03-26T20:46:33.319Z,6.74
2023-03-26T20:49:00.302Z,6.66
2023-03-26T20:51:28.964Z,6.58
2023-03-26T20:53:56.599Z,6.54
2023-03-26T20:56:23.878Z,6.48
2023-03-26T20:59:03.659Z,6.45
2023-03-26T21:01:35.001Z,6.45
2023-03-26T21:04:04.445Z,6.35
2023-03-26T21:06:31.665Z,6.39
2023-03-26T21:08:58.815Z,6.34
2023-03-26T21:11:53.912Z,6.40
2023-03-26T21:14:44.361Z,6.37
2023-03-26T21:17:18.114Z,6.35
2023-03-26T21:19:45.640Z,6.34
2023-03-26T21:22:36.070Z,6.25
2023-03-26T21:25:08.493Z,6.27
2023-03-26T21:27:46.265Z,6.16
2023-03-26T21:30:16.710Z,6.19
2023-03-26T21:32:45.667Z,6.18
2023-03-26T21:35:13.848Z,6.15
2023-03-26T21:37:43.189Z,6.12
2023-03-26T21:40:15.173Z,6.06
2023-03-26T21:42:43.544Z,6.01
2023-03-26T21:45:11.161Z,5.97
2023-03-26T21:47:38.026Z,5.91
2023-03-26T21:50:06.873Z,5.91
2023-03-26T21:52:34.371Z,5.82
2023-03-26T21:55:03.777Z,5.75
2023-03-26T21:57:50.848Z,5.83
2023-03-26T22:00:19.334Z,5.78
2023-03-26T22:03:14.974Z,5.85
2023-03-26T22:05:51.082Z,5.81
2023-03-26T22:08:34.962Z,5.80
2023-03-26T22:11:01.715Z,5.80
2023-03-26T22:13:28.472Z,5.81
2023-03-26T22:15:56.963Z,5.81
2023-03-26T22:18:26.167Z,5.72
2023-03-26T22:20:53.392Z,5.73
2023-03-26T22:23:20.322Z,5.72
2023-03-26T22:25:47.086Z,5.71
2023-03-26T22:28:14.071Z,5.66
2023-03-26T22:30:41.690Z,5.65
2023-03-26T22:33:12.245Z,5.51
2023-03-26T22:35:42.203Z,5.45
2023-03-26T22:38:09.942Z,5.39
2023-03-26T22:40:36.777Z,5.37
2023-03-26T22:43:03.535Z,5.34
2023-03-26T22:45:30.351Z,5.30
2023-03-26T22:48:03.499Z,5.28
2023-03-26T22:50:31.800Z,5.22
2023-03-26T22:52:58.448Z,5.17
2023-03-26T22:55:28.750Z,5.08
2023-03-26T22:57:56.523Z,5.08
2023-03-26T23:00:23.423Z,5.10
2023-03-26T23:02:50.222Z,5.02
2023-03-26T23:05:19.666Z,5.03
2023-03-26T23:07:47.546Z,4.98
2023-03-26T23:10:14.415Z,4.91
2023-03-26T23:12:41.735Z,4.93
2023-03-26T23:15:09.963Z,4.89
2023-03-26T23:17:37.749Z,4.85
2023-03-26T23:20:15.453Z,4.85
2023-03-26T23:22:43.196Z,4.78
2023-03-26T23:25:10.432Z,4.76
2023-03-26T23:27:37.871Z,4.76
2023-03-26T23:30:05.943Z,4.68
2023-03-26T23:32:33.250Z,4.73
2023-03-26T23:35:00.150Z,4.68
2023-03-26T23:37:29.585Z,4.61
2023-03-26T23:39:56.299Z,4.59
2023-03-26T23:42:28.576Z,4.63
2023-03-26T23:44:56.973Z,4.62
2023-03-26T23:47:24.017Z,4.61
2023-03-26T23:49:51.043Z,4.61
2023-03-26T23:52:17.896Z,4.55
2023-03-26T23:54:45.270Z,4.54
2023-03-26T23:57:12.151Z,4.52
2023-03-26T23:59:41.712Z,4.43
